sensor_id;sensor_type;location;lat;lon;timestamp;P1;durP1;ratioP1;P2;durP2;ratioP2
36747;SDS011;22716;51.556;5.080;2022-11-20T00:02:14;12.90;;;8.07;;
36747;SDS011;22716;51.556;5.080;2022-11-20T00:04:44;12.17;;;7.37;;
36747;SDS011;22716;51.556;5.080;2022-11-20T00:07:13;12.37;;;7.43;;
36747;SDS011;22716;51.556;5.080;2022-11-20T00:09:41;11.43;;;8.37;;
36747;SDS011;22716;51.556;5.080;2022-11-20T00:12:10;13.53;;;7.33;;
36747;SDS011;22716;51.556;5.080;2022-11-20T00:14:42;11.30;;;7.27;;
36747;SDS011;22716;51.556;5.080;2022-11-20T00:17:11;14.73;;;8.90;;
36747;SDS011;22716;51.556;5.080;2022-11-20T00:19:40;12.53;;;7.80;;
36747;SDS011;22716;51.556;5.080;2022-11-20T00:22:08;12.63;;;7.33;;
36747;SDS011;22716;51.556;5.080;2022-11-20T00:24:37;14.53;;;7.90;;
36747;SDS011;22716;51.556;5.080;2022-11-20T00:27:07;13.47;;;8.03;;
36747;SDS011;22716;51.556;5.080;2022-11-20T00:29:35;12.87;;;8.80;;
36747;SDS011;22716;51.556;5.080;2022-11-20T00:32:07;15.90;;;9.33;;
36747;SDS011;22716;51.556;5.080;2022-11-20T00:34:36;13.93;;;8.10;;
36747;SDS011;22716;51.556;5.080;2022-11-20T00:37:06;17.27;;;10.20;;
36747;SDS011;22716;51.556;5.080;2022-11-20T00:39:36;13.80;;;8.33;;
36747;SDS011;22716;51.556;5.080;2022-11-20T00:42:06;17.80;;;9.20;;
36747;SDS011;22716;51.556;5.080;2022-11-20T00:44:36;14.73;;;9.00;;
36747;SDS011;22716;51.556;5.080;2022-11-20T00:47:07;13.93;;;8.60;;
36747;SDS011;22716;51.556;5.080;2022-11-20T00:49:36;18.47;;;9.73;;
36747;SDS011;22716;51.556;5.080;2022-11-20T00:52:06;17.23;;;10.90;;
36747;SDS011;22716;51.556;5.080;2022-11-20T00:54:35;15.10;;;8.97;;
36747;SDS011;22716;51.556;5.080;2022-11-20T00:57:04;15.07;;;9.03;;
36747;SDS011;22716;51.556;5.080;2022-11-20T00:59:34;12.47;;;7.83;;
36747;SDS011;22716;51.556;5.080;2022-11-20T01:02:02;13.17;;;8.60;;
36747;SDS011;22716;51.556;5.080;2022-11-20T01:04:34;17.83;;;9.83;;
36747;SDS011;22716;51.556;5.080;2022-11-20T01:07:03;15.37;;;8.83;;
36747;SDS011;22716;51.556;5.080;2022-11-20T01:09:32;15.03;;;9.60;;
36747;SDS011;22716;51.556;5.080;2022-11-20T01:12:02;14.67;;;8.57;;
36747;SDS011;22716;51.556;5.080;2022-11-20T01:14:31;20.40;;;10.07;;
36747;SDS011;22716;51.556;5.080;2022-11-20T01:16:59;18.60;;;9.30;;
36747;SDS011;22716;51.556;5.080;2022-11-20T01:19:28;14.57;;;9.03;;
36747;SDS011;22716;51.556;5.080;2022-11-20T01:22:01;15.03;;;8.57;;
36747;SDS011;22716;51.556;5.080;2022-11-20T01:24:30;16.07;;;9.37;;
36747;SDS011;22716;51.556;5.080;2022-11-20T01:26:59;13.37;;;8.80;;
36747;SDS011;22716;51.556;5.080;2022-11-20T01:29:29;14.77;;;9.13;;
36747;SDS011;22716;51.556;5.080;2022-11-20T01:32:01;13.17;;;8.10;;
36747;SDS011;22716;51.556;5.080;2022-11-20T01:34:29;15.17;;;9.00;;
36747;SDS011;22716;51.556;5.080;2022-11-20T01:36:58;14.27;;;8.73;;
36747;SDS011;22716;51.556;5.080;2022-11-20T01:39:31;11.73;;;8.33;;
36747;SDS011;22716;51.556;5.080;2022-11-20T01:42:01;13.00;;;7.93;;
36747;SDS011;22716;51.556;5.080;2022-11-20T01:44:53;15.77;;;9.17;;
36747;SDS011;22716;51.556;5.080;2022-11-20T01:47:57;12.57;;;8.53;;
36747;SDS011;22716;51.556;5.080;2022-11-20T01:50:28;13.53;;;8.87;;
36747;SDS011;22716;51.556;5.080;2022-11-20T01:53:00;14.43;;;8.90;;
36747;SDS011;22716;51.556;5.080;2022-11-20T01:55:36;13.38;;;8.68;;
36747;SDS011;22716;51.556;5.080;2022-11-20T01:58:09;13.93;;;8.67;;
36747;SDS011;22716;51.556;5.080;2022-11-20T02:00:40;14.67;;;9.43;;
36747;SDS011;22716;51.556;5.080;2022-11-20T02:03:10;15.03;;;8.67;;
36747;SDS011;22716;51.556;5.080;2022-11-20T02:05:43;16.70;;;8.97;;
36747;SDS011;22716;51.556;5.080;2022-11-20T02:08:17;15.70;;;9.57;;
36747;SDS011;22716;51.556;5.080;2022-11-20T02:10:51;14.23;;;8.93;;
36747;SDS011;22716;51.556;5.080;2022-11-20T02:13:20;12.77;;;8.73;;
36747;SDS011;22716;51.556;5.080;2022-11-20T02:16:01;11.13;;;8.17;;
36747;SDS011;22716;51.556;5.080;2022-11-20T02:18:31;13.80;;;8.07;;
36747;SDS011;22716;51.556;5.080;2022-11-20T02:21:03;12.43;;;8.87;;
36747;SDS011;22716;51.556;5.080;2022-11-20T02:23:39;15.07;;;9.33;;
36747;SDS011;22716;51.556;5.080;2022-11-20T02:26:12;13.67;;;9.50;;
36747;SDS011;22716;51.556;5.080;2022-11-20T02:28:44;12.10;;;7.93;;
36747;SDS011;22716;51.556;5.080;2022-11-20T02:31:13;11.93;;;7.50;;
36747;SDS011;22716;51.556;5.080;2022-11-20T02:33:43;11.10;;;7.53;;
36747;SDS011;22716;51.556;5.080;2022-11-20T02:36:14;15.03;;;9.27;;
36747;SDS011;22716;51.556;5.080;2022-11-20T02:38:45;12.23;;;8.80;;
36747;SDS011;22716;51.556;5.080;2022-11-20T02:41:17;13.13;;;8.13;;
36747;SDS011;22716;51.556;5.080;2022-11-20T02:43:46;16.77;;;10.50;;
36747;SDS011;22716;51.556;5.080;2022-11-20T02:46:16;11.90;;;7.53;;
36747;SDS011;22716;51.556;5.080;2022-11-20T02:48:45;12.70;;;8.57;;
36747;SDS011;22716;51.556;5.080;2022-11-20T02:51:14;11.83;;;8.10;;
36747;SDS011;22716;51.556;5.080;2022-11-20T02:53:43;27.97;;;9.70;;
36747;SDS011;22716;51.556;5.080;2022-11-20T02:56:12;14.97;;;10.03;;
36747;SDS011;22716;51.556;5.080;2022-11-20T02:58:44;12.33;;;8.07;;
36747;SDS011;22716;51.556;5.080;2022-11-20T03:01:13;16.60;;;10.20;;
36747;SDS011;22716;51.556;5.080;2022-11-20T03:03:42;15.83;;;8.60;;
36747;SDS011;22716;51.556;5.080;2022-11-20T03:06:14;13.90;;;8.67;;
36747;SDS011;22716;51.556;5.080;2022-11-20T03:08:44;14.17;;;8.93;;
36747;SDS011;22716;51.556;5.080;2022-11-20T03:11:13;15.40;;;9.07;;
36747;SDS011;22716;51.556;5.080;2022-11-20T03:13:47;14.70;;;9.50;;
36747;SDS011;22716;51.556;5.080;2022-11-20T03:16:17;14.93;;;9.20;;
36747;SDS011;22716;51.556;5.080;2022-11-20T03:18:51;12.67;;;9.20;;
36747;SDS011;22716;51.556;5.080;2022-11-20T03:21:21;14.23;;;9.67;;
36747;SDS011;22716;51.556;5.080;2022-11-20T03:23:50;13.10;;;8.73;;
36747;SDS011;22716;51.556;5.080;2022-11-20T03:26:20;12.57;;;8.63;;
36747;SDS011;22716;51.556;5.080;2022-11-20T03:28:54;13.97;;;9.07;;
36747;SDS011;22716;51.556;5.080;2022-11-20T03:31:24;13.30;;;8.83;;
36747;SDS011;22716;51.556;5.080;2022-11-20T03:33:55;15.90;;;8.83;;
36747;SDS011;22716;51.556;5.080;2022-11-20T03:36:27;12.57;;;8.47;;
36747;SDS011;22716;51.556;5.080;2022-11-20T03:39:01;16.20;;;9.60;;
36747;SDS011;22716;51.556;5.080;2022-11-20T03:41:30;15.10;;;9.93;;
36747;SDS011;22716;51.556;5.080;2022-11-20T03:44:07;13.93;;;9.47;;
36747;SDS011;22716;51.556;5.080;2022-11-20T03:46:38;16.38;;;10.85;;
36747;SDS011;22716;51.556;5.080;2022-11-20T03:49:09;14.13;;;8.97;;
36747;SDS011;22716;51.556;5.080;2022-11-20T03:51:38;15.67;;;9.60;;
36747;SDS011;22716;51.556;5.080;2022-11-20T03:54:11;16.70;;;10.03;;
36747;SDS011;22716;51.556;5.080;2022-11-20T03:56:40;12.00;;;9.30;;
36747;SDS011;22716;51.556;5.080;2022-11-20T03:59:12;14.50;;;9.20;;
36747;SDS011;22716;51.556;5.080;2022-11-20T04:01:42;15.23;;;8.57;;
36747;SDS011;22716;51.556;5.080;2022-11-20T04:04:11;13.53;;;9.10;;
36747;SDS011;22716;51.556;5.080;2022-11-20T04:06:41;14.20;;;9.93;;
36747;SDS011;22716;51.556;5.080;2022-11-20T04:09:10;13.77;;;8.97;;
36747;SDS011;22716;51.556;5.080;2022-11-20T04:11:39;15.50;;;9.53;;
36747;SDS011;22716;51.556;5.080;2022-11-20T04:14:14;13.97;;;9.40;;
36747;SDS011;22716;51.556;5.080;2022-11-20T04:16:44;13.93;;;9.10;;
36747;SDS011;22716;51.556;5.080;2022-11-20T04:19:14;16.63;;;9.50;;
36747;SDS011;22716;51.556;5.080;2022-11-20T04:21:44;14.47;;;9.10;;
36747;SDS011;22716;51.556;5.080;2022-11-20T04:24:13;14.40;;;9.47;;
36747;SDS011;22716;51.556;5.080;2022-11-20T04:26:42;14.30;;;9.23;;
36747;SDS011;22716;51.556;5.080;2022-11-20T04:29:14;16.87;;;9.43;;
36747;SDS011;22716;51.556;5.080;2022-11-20T04:31:44;12.73;;;8.80;;
36747;SDS011;22716;51.556;5.080;2022-11-20T04:34:13;16.13;;;9.67;;
36747;SDS011;22716;51.556;5.080;2022-11-20T04:36:43;12.67;;;8.73;;
36747;SDS011;22716;51.556;5.080;2022-11-20T04:39:12;13.80;;;8.50;;
36747;SDS011;22716;51.556;5.080;2022-11-20T04:41:43;12.77;;;8.93;;
36747;SDS011;22716;51.556;5.080;2022-11-20T04:44:14;13.63;;;9.07;;
36747;SDS011;22716;51.556;5.080;2022-11-20T04:46:43;13.40;;;9.00;;
36747;SDS011;22716;51.556;5.080;2022-11-20T04:49:13;12.37;;;8.80;;
36747;SDS011;22716;51.556;5.080;2022-11-20T04:51:42;13.73;;;9.10;;
36747;SDS011;22716;51.556;5.080;2022-11-20T04:54:11;15.80;;;9.83;;
36747;SDS011;22716;51.556;5.080;2022-11-20T04:56:42;15.57;;;9.40;;
36747;SDS011;22716;51.556;5.080;2022-11-20T04:59:10;13.73;;;9.00;;
36747;SDS011;22716;51.556;5.080;2022-11-20T05:01:42;18.17;;;9.60;;
36747;SDS011;22716;51.556;5.080;2022-11-20T05:04:11;21.47;;;10.53;;
36747;SDS011;22716;51.556;5.080;2022-11-20T05:06:42;13.77;;;9.07;;
36747;SDS011;22716;51.556;5.080;2022-11-20T05:09:11;13.13;;;9.63;;
36747;SDS011;22716;51.556;5.080;2022-11-20T05:11:41;11.73;;;8.40;;
36747;SDS011;22716;51.556;5.080;2022-11-20T05:14:10;17.63;;;9.73;;
36747;SDS011;22716;51.556;5.080;2022-11-20T05:16:39;12.80;;;8.17;;
36747;SDS011;22716;51.556;5.080;2022-11-20T05:19:10;15.10;;;9.17;;
36747;SDS011;22716;51.556;5.080;2022-11-20T05:21:39;14.80;;;9.13;;
36747;SDS011;22716;51.556;5.080;2022-11-20T05:24:08;14.40;;;8.97;;
36747;SDS011;22716;51.556;5.080;2022-11-20T05:26:37;15.27;;;8.97;;
36747;SDS011;22716;51.556;5.080;2022-11-20T05:29:09;12.77;;;9.33;;
36747;SDS011;22716;51.556;5.080;2022-11-20T05:31:38;14.00;;;8.60;;
36747;SDS011;22716;51.556;5.080;2022-11-20T05:34:10;13.37;;;8.17;;
36747;SDS011;22716;51.556;5.080;2022-11-20T05:36:39;14.43;;;9.97;;
36747;SDS011;22716;51.556;5.080;2022-11-20T05:39:08;14.05;;;9.32;;
36747;SDS011;22716;51.556;5.080;2022-11-20T05:41:37;15.93;;;9.23;;
36747;SDS011;22716;51.556;5.080;2022-11-20T05:44:10;14.73;;;9.10;;
36747;SDS011;22716;51.556;5.080;2022-11-20T05:46:45;17.17;;;9.37;;
36747;SDS011;22716;51.556;5.080;2022-11-20T05:49:14;13.67;;;9.73;;
36747;SDS011;22716;51.556;5.080;2022-11-20T05:51:43;12.80;;;9.43;;
36747;SDS011;22716;51.556;5.080;2022-11-20T05:54:13;14.13;;;10.30;;
36747;SDS011;22716;51.556;5.080;2022-11-20T05:56:42;14.60;;;8.80;;
36747;SDS011;22716;51.556;5.080;2022-11-20T05:59:11;14.43;;;9.40;;
36747;SDS011;22716;51.556;5.080;2022-11-20T06:01:40;15.27;;;9.87;;
36747;SDS011;22716;51.556;5.080;2022-11-20T06:04:11;12.70;;;8.80;;
36747;SDS011;22716;51.556;5.080;2022-11-20T06:06:40;13.17;;;8.60;;
36747;SDS011;22716;51.556;5.080;2022-11-20T06:09:11;15.77;;;9.63;;
36747;SDS011;22716;51.556;5.080;2022-11-20T06:11:40;13.97;;;9.17;;
36747;SDS011;22716;51.556;5.080;2022-11-20T06:14:09;13.50;;;9.07;;
36747;SDS011;22716;51.556;5.080;2022-11-20T06:16:39;16.83;;;9.53;;
36747;SDS011;22716;51.556;5.080;2022-11-20T06:19:08;14.53;;;9.67;;
36747;SDS011;22716;51.556;5.080;2022-11-20T06:21:39;16.17;;;9.10;;
36747;SDS011;22716;51.556;5.080;2022-11-20T06:24:08;12.73;;;8.47;;
36747;SDS011;22716;51.556;5.080;2022-11-20T06:26:39;13.17;;;9.30;;
36747;SDS011;22716;51.556;5.080;2022-11-20T06:29:08;11.30;;;8.20;;
36747;SDS011;22716;51.556;5.080;2022-11-20T06:31:37;16.37;;;10.20;;
36747;SDS011;22716;51.556;5.080;2022-11-20T06:34:08;16.40;;;10.10;;
36747;SDS011;22716;51.556;5.080;2022-11-20T06:36:40;12.73;;;9.40;;
36747;SDS011;22716;51.556;5.080;2022-11-20T06:39:09;14.90;;;9.73;;
36747;SDS011;22716;51.556;5.080;2022-11-20T06:41:38;13.57;;;8.43;;
36747;SDS011;22716;51.556;5.080;2022-11-20T06:44:07;14.60;;;9.97;;
36747;SDS011;22716;51.556;5.080;2022-11-20T06:46:36;16.57;;;9.83;;
36747;SDS011;22716;51.556;5.080;2022-11-20T06:49:05;13.07;;;8.67;;
36747;SDS011;22716;51.556;5.080;2022-11-20T06:51:34;15.77;;;9.00;;
36747;SDS011;22716;51.556;5.080;2022-11-20T06:54:07;13.80;;;9.37;;
36747;SDS011;22716;51.556;5.080;2022-11-20T06:56:36;14.67;;;9.17;;
36747;SDS011;22716;51.556;5.080;2022-11-20T06:59:06;15.20;;;9.30;;
36747;SDS011;22716;51.556;5.080;2022-11-20T07:01:36;16.03;;;9.93;;
36747;SDS011;22716;51.556;5.080;2022-11-20T07:04:05;12.93;;;8.37;;
36747;SDS011;22716;51.556;5.080;2022-11-20T07:06:34;14.80;;;8.87;;
36747;SDS011;22716;51.556;5.080;2022-11-20T07:09:03;14.47;;;10.90;;
36747;SDS011;22716;51.556;5.080;2022-11-20T07:11:35;16.77;;;9.77;;
36747;SDS011;22716;51.556;5.080;2022-11-20T07:14:08;16.10;;;10.57;;
36747;SDS011;22716;51.556;5.080;2022-11-20T07:16:38;14.33;;;9.40;;
36747;SDS011;22716;51.556;5.080;2022-11-20T07:19:07;14.33;;;8.60;;
36747;SDS011;22716;51.556;5.080;2022-11-20T07:21:36;15.53;;;9.23;;
36747;SDS011;22716;51.556;5.080;2022-11-20T07:24:05;13.63;;;8.47;;
36747;SDS011;22716;51.556;5.080;2022-11-20T07:26:40;14.30;;;9.20;;
36747;SDS011;22716;51.556;5.080;2022-11-20T07:29:09;13.93;;;9.63;;
36747;SDS011;22716;51.556;5.080;2022-11-20T07:31:38;13.43;;;9.70;;
36747;SDS011;22716;51.556;5.080;2022-11-20T07:34:07;17.47;;;9.63;;
36747;SDS011;22716;51.556;5.080;2022-11-20T07:36:37;13.50;;;9.80;;
36747;SDS011;22716;51.556;5.080;2022-11-20T07:39:06;14.37;;;9.70;;
36747;SDS011;22716;51.556;5.080;2022-11-20T07:41:35;14.10;;;9.43;;
36747;SDS011;22716;51.556;5.080;2022-11-20T07:44:07;17.13;;;9.47;;
36747;SDS011;22716;51.556;5.080;2022-11-20T07:46:35;13.83;;;9.10;;
36747;SDS011;22716;51.556;5.080;2022-11-20T07:49:04;17.30;;;9.80;;
36747;SDS011;22716;51.556;5.080;2022-11-20T07:51:33;14.57;;;9.00;;
36747;SDS011;22716;51.556;5.080;2022-11-20T07:54:02;17.47;;;10.60;;
36747;SDS011;22716;51.556;5.080;2022-11-20T07:56:33;17.30;;;9.73;;
36747;SDS011;22716;51.556;5.080;2022-11-20T07:59:03;14.83;;;10.10;;
36747;SDS011;22716;51.556;5.080;2022-11-20T08:01:37;15.03;;;9.60;;
36747;SDS011;22716;51.556;5.080;2022-11-20T08:04:06;17.07;;;10.40;;
36747;SDS011;22716;51.556;5.080;2022-11-20T08:06:35;13.40;;;9.60;;
36747;SDS011;22716;51.556;5.080;2022-11-20T08:09:04;15.87;;;10.10;;
36747;SDS011;22716;51.556;5.080;2022-11-20T08:11:33;18.60;;;10.47;;
36747;SDS011;22716;51.556;5.080;2022-11-20T08:14:15;13.17;;;9.17;;
36747;SDS011;22716;51.556;5.080;2022-11-20T08:16:46;13.93;;;9.33;;
36747;SDS011;22716;51.556;5.080;2022-11-20T08:19:17;16.77;;;10.43;;
36747;SDS011;22716;51.556;5.080;2022-11-20T08:21:46;15.00;;;10.00;;
36747;SDS011;22716;51.556;5.080;2022-11-20T08:24:16;12.87;;;9.13;;
36747;SDS011;22716;51.556;5.080;2022-11-20T08:26:44;18.57;;;10.23;;
36747;SDS011;22716;51.556;5.080;2022-11-20T08:29:13;20.27;;;10.47;;
36747;SDS011;22716;51.556;5.080;2022-11-20T08:31:45;20.33;;;10.43;;
36747;SDS011;22716;51.556;5.080;2022-11-20T08:34:14;16.00;;;10.47;;
36747;SDS011;22716;51.556;5.080;2022-11-20T08:36:43;16.50;;;11.17;;
36747;SDS011;22716;51.556;5.080;2022-11-20T08:39:12;16.93;;;10.03;;
36747;SDS011;22716;51.556;5.080;2022-11-20T08:41:42;25.00;;;13.97;;
36747;SDS011;22716;51.556;5.080;2022-11-20T08:44:17;31.27;;;17.95;;
36747;SDS011;22716;51.556;5.080;2022-11-20T08:46:48;40.43;;;19.63;;
36747;SDS011;22716;51.556;5.080;2022-11-20T08:49:17;20.83;;;11.53;;
36747;SDS011;22716;51.556;5.080;2022-11-20T08:51:47;16.30;;;10.73;;
36747;SDS011;22716;51.556;5.080;2022-11-20T08:54:19;16.10;;;10.43;;
36747;SDS011;22716;51.556;5.080;2022-11-20T08:56:48;18.80;;;11.37;;
36747;SDS011;22716;51.556;5.080;2022-11-20T08:59:16;19.27;;;10.73;;
36747;SDS011;22716;51.556;5.080;2022-11-20T09:01:48;18.03;;;10.83;;
36747;SDS011;22716;51.556;5.080;2022-11-20T09:04:17;15.30;;;10.13;;
36747;SDS011;22716;51.556;5.080;2022-11-20T09:06:47;17.70;;;11.33;;
36747;SDS011;22716;51.556;5.080;2022-11-20T09:09:17;17.43;;;10.73;;
36747;SDS011;22716;51.556;5.080;2022-11-20T09:11:47;19.20;;;12.30;;
36747;SDS011;22716;51.556;5.080;2022-11-20T09:14:15;16.60;;;10.33;;
36747;SDS011;22716;51.556;5.080;2022-11-20T09:16:45;17.50;;;11.13;;
36747;SDS011;22716;51.556;5.080;2022-11-20T09:19:17;24.33;;;12.77;;
36747;SDS011;22716;51.556;5.080;2022-11-20T09:21:45;19.17;;;13.23;;
36747;SDS011;22716;51.556;5.080;2022-11-20T09:24:15;17.90;;;11.37;;
36747;SDS011;22716;51.556;5.080;2022-11-20T09:26:47;16.30;;;10.63;;
36747;SDS011;22716;51.556;5.080;2022-11-20T09:29:16;17.60;;;11.43;;
36747;SDS011;22716;51.556;5.080;2022-11-20T09:31:47;16.80;;;11.93;;
36747;SDS011;22716;51.556;5.080;2022-11-20T09:34:20;19.63;;;11.73;;
36747;SDS011;22716;51.556;5.080;2022-11-20T09:36:49;18.47;;;12.07;;
36747;SDS011;22716;51.556;5.080;2022-11-20T09:39:18;19.67;;;11.97;;
36747;SDS011;22716;51.556;5.080;2022-11-20T09:41:57;18.67;;;10.93;;
36747;SDS011;22716;51.556;5.080;2022-11-20T09:44:40;19.70;;;11.43;;
36747;SDS011;22716;51.556;5.080;2022-11-20T09:47:24;18.43;;;11.00;;
36747;SDS011;22716;51.556;5.080;2022-11-20T09:50:07;21.43;;;12.53;;
36747;SDS011;22716;51.556;5.080;2022-11-20T09:52:51;19.33;;;12.23;;
36747;SDS011;22716;51.556;5.080;2022-11-20T09:55:36;19.83;;;12.40;;
36747;SDS011;22716;51.556;5.080;2022-11-20T09:58:06;19.50;;;12.07;;
36747;SDS011;22716;51.556;5.080;2022-11-20T10:00:44;22.83;;;13.03;;
36747;SDS011;22716;51.556;5.080;2022-11-20T10:03:16;20.03;;;12.20;;
36747;SDS011;22716;51.556;5.080;2022-11-20T10:05:55;20.57;;;11.87;;
36747;SDS011;22716;51.556;5.080;2022-11-20T10:08:31;18.43;;;12.03;;
36747;SDS011;22716;51.556;5.080;2022-11-20T10:11:11;19.93;;;12.80;;
36747;SDS011;22716;51.556;5.080;2022-11-20T10:13:48;29.80;;;18.13;;
36747;SDS011;22716;51.556;5.080;2022-11-20T10:16:30;30.30;;;17.67;;
36747;SDS011;22716;51.556;5.080;2022-11-20T10:19:10;24.87;;;16.90;;
36747;SDS011;22716;51.556;5.080;2022-11-20T10:21:58;27.40;;;16.20;;
36747;SDS011;22716;51.556;5.080;2022-11-20T10:24:43;26.65;;;16.00;;
36747;SDS011;22716;51.556;5.080;2022-11-20T10:27:26;25.97;;;14.70;;
36747;SDS011;22716;51.556;5.080;2022-11-20T10:30:09;26.57;;;15.57;;
36747;SDS011;22716;51.556;5.080;2022-11-20T10:32:40;25.33;;;16.73;;
36747;SDS011;22716;51.556;5.080;2022-11-20T10:35:16;28.83;;;15.87;;
36747;SDS011;22716;51.556;5.080;2022-11-20T10:37:54;27.23;;;16.87;;
36747;SDS011;22716;51.556;5.080;2022-11-20T10:40:28;28.60;;;17.50;;
36747;SDS011;22716;51.556;5.080;2022-11-20T10:43:06;30.53;;;18.27;;
36747;SDS011;22716;51.556;5.080;2022-11-20T10:45:44;33.37;;;18.17;;
36747;SDS011;22716;51.556;5.080;2022-11-20T10:48:22;32.53;;;19.23;;
36747;SDS011;22716;51.556;5.080;2022-11-20T10:54:03;38.57;;;20.03;;
36747;SDS011;22716;51.556;5.080;2022-11-20T10:56:41;32.10;;;19.73;;
36747;SDS011;22716;51.556;5.080;2022-11-20T11:02:17;36.67;;;18.87;;
36747;SDS011;22716;51.556;5.080;2022-11-20T11:04:48;34.60;;;20.03;;
36747;SDS011;22716;51.556;5.080;2022-11-20T11:07:20;30.93;;;19.53;;
36747;SDS011;22716;51.556;5.080;2022-11-20T11:09:55;33.03;;;18.33;;
36747;SDS011;22716;51.556;5.080;2022-11-20T11:12:27;35.10;;;19.60;;
36747;SDS011;22716;51.556;5.080;2022-11-20T11:14:57;32.80;;;18.80;;
36747;SDS011;22716;51.556;5.080;2022-11-20T11:17:27;33.50;;;19.27;;
36747;SDS011;22716;51.556;5.080;2022-11-20T11:20:05;33.83;;;17.90;;
36747;SDS011;22716;51.556;5.080;2022-11-20T11:22:45;33.93;;;20.47;;
36747;SDS011;22716;51.556;5.080;2022-11-20T11:25:28;31.17;;;18.23;;
36747;SDS011;22716;51.556;5.080;2022-11-20T11:28:19;38.57;;;20.23;;
36747;SDS011;22716;51.556;5.080;2022-11-20T11:30:52;41.60;;;20.53;;
36747;SDS011;22716;51.556;5.080;2022-11-20T11:33:24;35.03;;;19.70;;
36747;SDS011;22716;51.556;5.080;2022-11-20T11:35:55;35.17;;;20.13;;
36747;SDS011;22716;51.556;5.080;2022-11-20T11:38:28;35.73;;;20.13;;
36747;SDS011;22716;51.556;5.080;2022-11-20T11:41:02;30.97;;;18.77;;
36747;SDS011;22716;51.556;5.080;2022-11-20T11:43:34;39.27;;;21.03;;
36747;SDS011;22716;51.556;5.080;2022-11-20T11:46:24;35.63;;;19.80;;
36747;SDS011;22716;51.556;5.080;2022-11-20T11:48:57;40.40;;;21.57;;
36747;SDS011;22716;51.556;5.080;2022-11-20T11:51:31;36.97;;;21.27;;
36747;SDS011;22716;51.556;5.080;2022-11-20T11:54:10;39.60;;;22.17;;
36747;SDS011;22716;51.556;5.080;2022-11-20T11:56:48;40.80;;;22.03;;
36747;SDS011;22716;51.556;5.080;2022-11-20T11:59:22;40.20;;;22.47;;
36747;SDS011;22716;51.556;5.080;2022-11-20T12:01:59;39.33;;;21.50;;
36747;SDS011;22716;51.556;5.080;2022-11-20T12:04:43;43.93;;;23.03;;
36747;SDS011;22716;51.556;5.080;2022-11-20T12:07:22;43.17;;;21.97;;
36747;SDS011;22716;51.556;5.080;2022-11-20T12:10:04;41.37;;;21.40;;
36747;SDS011;22716;51.556;5.080;2022-11-20T12:12:49;38.47;;;20.23;;
36747;SDS011;22716;51.556;5.080;2022-11-20T12:15:26;39.23;;;22.10;;
36747;SDS011;22716;51.556;5.080;2022-11-20T12:17:58;36.97;;;19.67;;
36747;SDS011;22716;51.556;5.080;2022-11-20T12:20:29;39.47;;;21.13;;
36747;SDS011;22716;51.556;5.080;2022-11-20T12:23:05;35.50;;;20.50;;
36747;SDS011;22716;51.556;5.080;2022-11-20T12:25:46;40.50;;;21.48;;
36747;SDS011;22716;51.556;5.080;2022-11-20T12:28:28;42.57;;;22.03;;
36747;SDS011;22716;51.556;5.080;2022-11-20T12:31:42;36.93;;;22.37;;
36747;SDS011;22716;51.556;5.080;2022-11-20T12:34:40;42.28;;;22.77;;
36747;SDS011;22716;51.556;5.080;2022-11-20T12:37:24;38.80;;;20.07;;
36747;SDS011;22716;51.556;5.080;2022-11-20T12:40:15;40.80;;;21.77;;
36747;SDS011;22716;51.556;5.080;2022-11-20T12:43:01;38.50;;;20.77;;
36747;SDS011;22716;51.556;5.080;2022-11-20T12:49:22;44.90;;;21.30;;
36747;SDS011;22716;51.556;5.080;2022-11-20T12:52:17;40.43;;;21.03;;
36747;SDS011;22716;51.556;5.080;2022-11-20T12:57:50;37.83;;;20.70;;
36747;SDS011;22716;51.556;5.080;2022-11-20T13:00:24;42.43;;;21.93;;
36747;SDS011;22716;51.556;5.080;2022-11-20T13:03:03;40.67;;;21.73;;
36747;SDS011;22716;51.556;5.080;2022-11-20T13:05:45;43.50;;;22.47;;
36747;SDS011;22716;51.556;5.080;2022-11-20T13:08:23;36.30;;;21.13;;
36747;SDS011;22716;51.556;5.080;2022-11-20T13:10:56;40.03;;;20.43;;
36747;SDS011;22716;51.556;5.080;2022-11-20T13:13:33;46.77;;;21.17;;
36747;SDS011;22716;51.556;5.080;2022-11-20T13:16:14;46.13;;;22.87;;
36747;SDS011;22716;51.556;5.080;2022-11-20T13:18:51;41.65;;;22.15;;
36747;SDS011;22716;51.556;5.080;2022-11-20T13:21:22;41.13;;;20.53;;
36747;SDS011;22716;51.556;5.080;2022-11-20T13:24:06;39.22;;;22.10;;
36747;SDS011;22716;51.556;5.080;2022-11-20T13:27:05;41.93;;;20.87;;
36747;SDS011;22716;51.556;5.080;2022-11-20T13:30:01;43.03;;;20.47;;
36747;SDS011;22716;51.556;5.080;2022-11-20T13:32:53;45.83;;;22.17;;
36747;SDS011;22716;51.556;5.080;2022-11-20T13:35:32;46.07;;;23.70;;
36747;SDS011;22716;51.556;5.080;2022-11-20T13:38:03;41.73;;;20.13;;
36747;SDS011;22716;51.556;5.080;2022-11-20T13:40:36;46.87;;;22.37;;
36747;SDS011;22716;51.556;5.080;2022-11-20T13:43:19;42.17;;;22.20;;
36747;SDS011;22716;51.556;5.080;2022-11-20T13:45:57;45.20;;;23.50;;
36747;SDS011;22716;51.556;5.080;2022-11-20T13:48:29;42.30;;;21.40;;
36747;SDS011;22716;51.556;5.080;2022-11-20T13:51:09;44.63;;;22.37;;
36747;SDS011;22716;51.556;5.080;2022-11-20T13:53:57;40.87;;;19.93;;
36747;SDS011;22716;51.556;5.080;2022-11-20T13:57:01;39.30;;;22.57;;
36747;SDS011;22716;51.556;5.080;2022-11-20T13:59:45;44.90;;;22.17;;
36747;SDS011;22716;51.556;5.080;2022-11-20T14:02:25;46.23;;;23.87;;
36747;SDS011;22716;51.556;5.080;2022-11-20T14:04:59;46.17;;;23.33;;
36747;SDS011;22716;51.556;5.080;2022-11-20T14:07:35;47.37;;;22.07;;
36747;SDS011;22716;51.556;5.080;2022-11-20T14:10:18;45.53;;;22.87;;
36747;SDS011;22716;51.556;5.080;2022-11-20T14:12:53;43.43;;;21.47;;
36747;SDS011;22716;51.556;5.080;2022-11-20T14:15:27;40.33;;;22.57;;
36747;SDS011;22716;51.556;5.080;2022-11-20T14:17:58;42.37;;;21.20;;
36747;SDS011;22716;51.556;5.080;2022-11-20T14:20:40;41.47;;;21.07;;
36747;SDS011;22716;51.556;5.080;2022-11-20T14:23:22;49.40;;;21.20;;
36747;SDS011;22716;51.556;5.080;2022-11-20T14:25:53;43.70;;;21.07;;
36747;SDS011;22716;51.556;5.080;2022-11-20T14:28:25;45.87;;;21.77;;
36747;SDS011;22716;51.556;5.080;2022-11-20T14:30:56;43.23;;;20.63;;
36747;SDS011;22716;51.556;5.080;2022-11-20T14:33:26;45.60;;;22.37;;
36747;SDS011;22716;51.556;5.080;2022-11-20T14:38:32;45.43;;;23.97;;
36747;SDS011;22716;51.556;5.080;2022-11-20T14:41:15;44.93;;;22.17;;
36747;SDS011;22716;51.556;5.080;2022-11-20T14:43:48;48.37;;;22.90;;
36747;SDS011;22716;51.556;5.080;2022-11-20T14:46:24;48.70;;;23.47;;
36747;SDS011;22716;51.556;5.080;2022-11-20T14:48:57;46.83;;;22.67;;
36747;SDS011;22716;51.556;5.080;2022-11-20T14:51:31;48.35;;;21.45;;
36747;SDS011;22716;51.556;5.080;2022-11-20T14:54:14;50.03;;;23.53;;
36747;SDS011;22716;51.556;5.080;2022-11-20T14:56:53;46.43;;;22.37;;
36747;SDS011;22716;51.556;5.080;2022-11-20T14:59:23;51.27;;;22.90;;
36747;SDS011;22716;51.556;5.080;2022-11-20T15:01:56;46.20;;;21.87;;
36747;SDS011;22716;51.556;5.080;2022-11-20T15:04:29;48.43;;;23.33;;
36747;SDS011;22716;51.556;5.080;2022-11-20T15:06:58;48.60;;;21.90;;
36747;SDS011;22716;51.556;5.080;2022-11-20T15:09:31;45.10;;;22.00;;
36747;SDS011;22716;51.556;5.080;2022-11-20T15:12:01;40.23;;;21.93;;
36747;SDS011;22716;51.556;5.080;2022-11-20T15:14:31;47.63;;;21.80;;
36747;SDS011;22716;51.556;5.080;2022-11-20T15:17:00;46.97;;;22.80;;
36747;SDS011;22716;51.556;5.080;2022-11-20T15:19:31;55.37;;;22.77;;